sensor_id;sensor_type;location;lat;lon;timestamp;P1;durP1;ratioP1;P2;durP2;ratioP2
78840;SDS011;68379;47.190;27.558;2024-01-06T00:01:36;10.60;;;6.20;;
78840;SDS011;68379;47.190;27.558;2024-01-06T00:04:08;11.20;;;6.20;;
78840;SDS011;68379;47.190;27.558;2024-01-06T00:06:39;14.10;;;6.20;;
78840;SDS011;68379;47.190;27.558;2024-01-06T00:09:10;14.00;;;5.60;;
78840;SDS011;68379;47.190;27.558;2024-01-06T00:14:14;10.50;;;6.20;;
78840;SDS011;68379;47.190;27.558;2024-01-06T00:16:45;9.80;;;5.30;;
78840;SDS011;68379;47.190;27.558;2024-01-06T00:19:17;9.60;;;5.20;;
78840;SDS011;68379;47.190;27.558;2024-01-06T00:21:48;11.80;;;6.60;;
78840;SDS011;68379;47.190;27.558;2024-01-06T00:24:20;12.40;;;6.40;;
78840;SDS011;68379;47.190;27.558;2024-01-06T00:26:52;12.10;;;6.30;;
78840;SDS011;68379;47.190;27.558;2024-01-06T00:29:23;11.50;;;6.00;;
78840;SDS011;68379;47.190;27.558;2024-01-06T00:31:55;13.70;;;6.20;;
78840;SDS011;68379;47.190;27.558;2024-01-06T00:34:26;10.50;;;6.10;;
78840;SDS011;68379;47.190;27.558;2024-01-06T00:36:57;10.30;;;5.50;;
78840;SDS011;68379;47.190;27.558;2024-01-06T00:39:29;8.60;;;5.30;;
78840;SDS011;68379;47.190;27.558;2024-01-06T00:42:01;14.50;;;6.00;;
78840;SDS011;68379;47.190;27.558;2024-01-06T00:44:34;11.10;;;6.20;;
78840;SDS011;68379;47.190;27.558;2024-01-06T00:47:06;9.00;;;5.10;;
78840;SDS011;68379;47.190;27.558;2024-01-06T00:49:37;14.10;;;6.70;;
78840;SDS011;68379;47.190;27.558;2024-01-06T00:52:09;9.70;;;5.70;;
78840;SDS011;68379;47.190;27.558;2024-01-06T00:54:40;11.30;;;5.70;;
78840;SDS011;68379;47.190;27.558;2024-01-06T00:57:11;11.60;;;5.80;;
78840;SDS011;68379;47.190;27.558;2024-01-06T00:59:43;10.30;;;6.10;;
78840;SDS011;68379;47.190;27.558;2024-01-06T01:02:14;9.70;;;5.00;;
78840;SDS011;68379;47.190;27.558;2024-01-06T01:04:45;12.70;;;6.10;;
78840;SDS011;68379;47.190;27.558;2024-01-06T01:07:16;13.40;;;5.80;;
78840;SDS011;68379;47.190;27.558;2024-01-06T01:09:48;12.40;;;5.80;;
78840;SDS011;68379;47.190;27.558;2024-01-06T01:12:19;12.80;;;6.70;;
78840;SDS011;68379;47.190;27.558;2024-01-06T01:14:50;11.70;;;6.40;;
78840;SDS011;68379;47.190;27.558;2024-01-06T01:17:22;12.20;;;6.30;;
78840;SDS011;68379;47.190;27.558;2024-01-06T01:19:54;12.00;;;6.00;;
78840;SDS011;68379;47.190;27.558;2024-01-06T01:22:25;9.40;;;5.60;;
78840;SDS011;68379;47.190;27.558;2024-01-06T01:24:59;11.70;;;6.10;;
78840;SDS011;68379;47.190;27.558;2024-01-06T01:27:35;11.80;;;5.80;;
78840;SDS011;68379;47.190;27.558;2024-01-06T01:30:08;10.90;;;6.10;;
78840;SDS011;68379;47.190;27.558;2024-01-06T01:32:40;11.10;;;6.00;;
78840;SDS011;68379;47.190;27.558;2024-01-06T01:35:12;12.00;;;5.50;;
78840;SDS011;68379;47.190;27.558;2024-01-06T01:37:44;11.60;;;5.80;;
78840;SDS011;68379;47.190;27.558;2024-01-06T01:40:15;9.10;;;5.70;;
78840;SDS011;68379;47.190;27.558;2024-01-06T01:42:47;12.70;;;6.50;;
78840;SDS011;68379;47.190;27.558;2024-01-06T01:45:18;12.70;;;6.10;;
78840;SDS011;68379;47.190;27.558;2024-01-06T01:47:49;10.30;;;6.00;;
78840;SDS011;68379;47.190;27.558;2024-01-06T01:50:21;11.00;;;5.60;;
78840;SDS011;68379;47.190;27.558;2024-01-06T01:52:55;12.60;;;6.40;;
78840;SDS011;68379;47.190;27.558;2024-01-06T01:55:27;13.00;;;5.80;;
78840;SDS011;68379;47.190;27.558;2024-01-06T01:57:59;11.30;;;6.80;;
78840;SDS011;68379;47.190;27.558;2024-01-06T02:00:31;11.20;;;5.70;;
78840;SDS011;68379;47.190;27.558;2024-01-06T02:03:02;9.70;;;6.00;;
78840;SDS011;68379;47.190;27.558;2024-01-06T02:05:36;11.00;;;5.70;;
78840;SDS011;68379;47.190;27.558;2024-01-06T02:08:08;12.70;;;5.90;;
78840;SDS011;68379;47.190;27.558;2024-01-06T02:10:39;11.40;;;5.70;;
78840;SDS011;68379;47.190;27.558;2024-01-06T02:13:11;13.60;;;6.10;;
78840;SDS011;68379;47.190;27.558;2024-01-06T02:15:43;10.40;;;5.70;;
78840;SDS011;68379;47.190;27.558;2024-01-06T02:18:15;11.80;;;6.20;;
78840;SDS011;68379;47.190;27.558;2024-01-06T02:20:47;11.80;;;6.40;;
78840;SDS011;68379;47.190;27.558;2024-01-06T02:23:20;11.40;;;6.40;;
78840;SDS011;68379;47.190;27.558;2024-01-06T02:25:52;11.70;;;5.90;;
78840;SDS011;68379;47.190;27.558;2024-01-06T02:28:23;13.30;;;6.10;;
78840;SDS011;68379;47.190;27.558;2024-01-06T02:30:55;11.20;;;6.00;;
78840;SDS011;68379;47.190;27.558;2024-01-06T02:33:26;12.40;;;6.30;;
78840;SDS011;68379;47.190;27.558;2024-01-06T02:35:58;10.50;;;5.70;;
78840;SDS011;68379;47.190;27.558;2024-01-06T02:38:29;13.60;;;6.10;;
78840;SDS011;68379;47.190;27.558;2024-01-06T02:41:01;11.10;;;5.70;;
78840;SDS011;68379;47.190;27.558;2024-01-06T02:43:33;13.30;;;5.30;;
78840;SDS011;68379;47.190;27.558;2024-01-06T02:46:04;12.70;;;5.80;;
78840;SDS011;68379;47.190;27.558;2024-01-06T02:48:36;10.30;;;5.60;;
78840;SDS011;68379;47.190;27.558;2024-01-06T02:51:07;11.30;;;6.20;;
78840;SDS011;68379;47.190;27.558;2024-01-06T02:53:40;11.40;;;5.60;;
78840;SDS011;68379;47.190;27.558;2024-01-06T02:56:12;10.40;;;6.40;;
78840;SDS011;68379;47.190;27.558;2024-01-06T02:58:43;11.30;;;5.60;;
78840;SDS011;68379;47.190;27.558;2024-01-06T03:01:15;13.20;;;6.00;;
78840;SDS011;68379;47.190;27.558;2024-01-06T03:03:46;12.50;;;6.30;;
78840;SDS011;68379;47.190;27.558;2024-01-06T03:06:18;10.90;;;5.30;;
78840;SDS011;68379;47.190;27.558;2024-01-06T03:08:49;10.40;;;5.90;;
78840;SDS011;68379;47.190;27.558;2024-01-06T03:11:21;9.80;;;5.70;;
78840;SDS011;68379;47.190;27.558;2024-01-06T03:13:52;11.40;;;5.70;;
78840;SDS011;68379;47.190;27.558;2024-01-06T03:16:24;12.80;;;6.70;;
78840;SDS011;68379;47.190;27.558;2024-01-06T03:18:55;11.70;;;5.90;;
78840;SDS011;68379;47.190;27.558;2024-01-06T03:21:27;14.20;;;7.40;;
78840;SDS011;68379;47.190;27.558;2024-01-06T03:23:58;14.90;;;7.50;;
78840;SDS011;68379;47.190;27.558;2024-01-06T03:26:29;13.30;;;6.80;;
78840;SDS011;68379;47.190;27.558;2024-01-06T03:29:01;9.00;;;5.40;;
78840;SDS011;68379;47.190;27.558;2024-01-06T03:31:32;13.00;;;6.20;;
78840;SDS011;68379;47.190;27.558;2024-01-06T03:34:03;12.30;;;6.10;;
78840;SDS011;68379;47.190;27.558;2024-01-06T03:36:36;11.80;;;6.40;;
78840;SDS011;68379;47.190;27.558;2024-01-06T03:39:08;13.00;;;6.00;;
78840;SDS011;68379;47.190;27.558;2024-01-06T03:41:41;11.80;;;5.60;;
78840;SDS011;68379;47.190;27.558;2024-01-06T03:44:12;12.50;;;7.40;;
78840;SDS011;68379;47.190;27.558;2024-01-06T03:46:44;15.10;;;7.00;;
78840;SDS011;68379;47.190;27.558;2024-01-06T03:49:15;13.50;;;6.40;;
78840;SDS011;68379;47.190;27.558;2024-01-06T03:51:48;11.60;;;6.90;;
78840;SDS011;68379;47.190;27.558;2024-01-06T03:54:20;13.00;;;6.90;;
78840;SDS011;68379;47.190;27.558;2024-01-06T03:56:52;13.70;;;6.70;;
78840;SDS011;68379;47.190;27.558;2024-01-06T03:59:23;13.60;;;6.70;;
78840;SDS011;68379;47.190;27.558;2024-01-06T04:01:54;12.40;;;6.00;;
78840;SDS011;68379;47.190;27.558;2024-01-06T04:04:26;13.10;;;6.80;;
78840;SDS011;68379;47.190;27.558;2024-01-06T04:06:57;11.60;;;6.80;;
78840;SDS011;68379;47.190;27.558;2024-01-06T04:09:29;15.30;;;6.40;;
78840;SDS011;68379;47.190;27.558;2024-01-06T04:12:01;13.50;;;6.90;;
78840;SDS011;68379;47.190;27.558;2024-01-06T04:14:32;12.70;;;6.60;;
78840;SDS011;68379;47.190;27.558;2024-01-06T04:17:04;16.10;;;7.30;;
78840;SDS011;68379;47.190;27.558;2024-01-06T04:19:39;15.90;;;7.20;;
78840;SDS011;68379;47.190;27.558;2024-01-06T04:22:10;16.60;;;6.20;;
78840;SDS011;68379;47.190;27.558;2024-01-06T04:24:42;15.00;;;7.10;;
78840;SDS011;68379;47.190;27.558;2024-01-06T04:27:13;12.80;;;7.60;;
78840;SDS011;68379;47.190;27.558;2024-01-06T04:29:46;17.20;;;7.00;;
78840;SDS011;68379;47.190;27.558;2024-01-06T04:32:21;13.10;;;6.50;;
78840;SDS011;68379;47.190;27.558;2024-01-06T04:34:52;14.90;;;7.00;;
78840;SDS011;68379;47.190;27.558;2024-01-06T04:37:25;9.90;;;5.40;;
78840;SDS011;68379;47.190;27.558;2024-01-06T04:39:56;15.20;;;6.90;;
78840;SDS011;68379;47.190;27.558;2024-01-06T04:42:28;12.60;;;6.20;;
78840;SDS011;68379;47.190;27.558;2024-01-06T04:44:59;13.70;;;6.70;;
78840;SDS011;68379;47.190;27.558;2024-01-06T04:47:32;14.40;;;7.50;;
78840;SDS011;68379;47.190;27.558;2024-01-06T04:50:04;15.80;;;7.00;;
78840;SDS011;68379;47.190;27.558;2024-01-06T04:52:36;14.40;;;6.60;;
78840;SDS011;68379;47.190;27.558;2024-01-06T04:55:08;16.80;;;7.40;;
78840;SDS011;68379;47.190;27.558;2024-01-06T04:57:39;14.80;;;6.90;;
78840;SDS011;68379;47.190;27.558;2024-01-06T05:00:12;15.70;;;6.50;;
78840;SDS011;68379;47.190;27.558;2024-01-06T05:02:44;14.20;;;7.40;;
78840;SDS011;68379;47.190;27.558;2024-01-06T05:05:15;15.60;;;7.30;;
78840;SDS011;68379;47.190;27.558;2024-01-06T05:07:47;15.00;;;7.70;;
78840;SDS011;68379;47.190;27.558;2024-01-06T05:10:18;14.10;;;7.40;;
78840;SDS011;68379;47.190;27.558;2024-01-06T05:12:50;14.20;;;7.50;;
78840;SDS011;68379;47.190;27.558;2024-01-06T05:15:22;15.50;;;7.70;;
78840;SDS011;68379;47.190;27.558;2024-01-06T05:17:55;16.90;;;7.40;;
78840;SDS011;68379;47.190;27.558;2024-01-06T05:20:26;16.70;;;7.80;;
78840;SDS011;68379;47.190;27.558;2024-01-06T05:22:58;13.50;;;7.00;;
78840;SDS011;68379;47.190;27.558;2024-01-06T05:25:29;16.50;;;7.60;;
78840;SDS011;68379;47.190;27.558;2024-01-06T05:30:34;13.40;;;7.00;;
78840;SDS011;68379;47.190;27.558;2024-01-06T05:33:08;13.30;;;6.50;;
78840;SDS011;68379;47.190;27.558;2024-01-06T05:35:43;14.40;;;7.20;;
78840;SDS011;68379;47.190;27.558;2024-01-06T05:38:14;14.70;;;8.00;;
78840;SDS011;68379;47.190;27.558;2024-01-06T05:40:46;19.10;;;8.70;;
78840;SDS011;68379;47.190;27.558;2024-01-06T05:43:17;15.60;;;7.50;;
78840;SDS011;68379;47.190;27.558;2024-01-06T05:45:51;13.90;;;7.20;;
78840;SDS011;68379;47.190;27.558;2024-01-06T05:48:22;15.70;;;7.60;;
78840;SDS011;68379;47.190;27.558;2024-01-06T05:50:54;16.50;;;8.30;;
78840;SDS011;68379;47.190;27.558;2024-01-06T05:53:25;16.20;;;8.40;;
78840;SDS011;68379;47.190;27.558;2024-01-06T05:55:57;17.50;;;9.10;;
78840;SDS011;68379;47.190;27.558;2024-01-06T05:58:28;13.40;;;6.90;;
78840;SDS011;68379;47.190;27.558;2024-01-06T06:01:00;16.40;;;7.20;;
78840;SDS011;68379;47.190;27.558;2024-01-06T06:03:32;18.80;;;8.00;;
78840;SDS011;68379;47.190;27.558;2024-01-06T06:06:04;17.50;;;7.90;;
78840;SDS011;68379;47.190;27.558;2024-01-06T06:08:36;14.90;;;7.60;;
78840;SDS011;68379;47.190;27.558;2024-01-06T06:11:09;19.40;;;9.40;;
78840;SDS011;68379;47.190;27.558;2024-01-06T06:13:40;14.70;;;8.00;;
78840;SDS011;68379;47.190;27.558;2024-01-06T06:16:12;15.40;;;8.20;;
78840;SDS011;68379;47.190;27.558;2024-01-06T06:18:43;16.30;;;7.90;;
78840;SDS011;68379;47.190;27.558;2024-01-06T06:21:14;16.30;;;8.00;;
78840;SDS011;68379;47.190;27.558;2024-01-06T06:23:46;14.50;;;7.60;;
78840;SDS011;68379;47.190;27.558;2024-01-06T06:26:17;17.20;;;8.40;;
78840;SDS011;68379;47.190;27.558;2024-01-06T06:28:49;17.00;;;8.90;;
78840;SDS011;68379;47.190;27.558;2024-01-06T06:31:20;13.20;;;6.90;;
78840;SDS011;68379;47.190;27.558;2024-01-06T06:33:51;17.50;;;7.70;;
78840;SDS011;68379;47.190;27.558;2024-01-06T06:36:23;20.50;;;8.40;;
78840;SDS011;68379;47.190;27.558;2024-01-06T06:38:54;16.10;;;8.40;;
78840;SDS011;68379;47.190;27.558;2024-01-06T06:41:26;16.30;;;7.60;;
78840;SDS011;68379;47.190;27.558;2024-01-06T06:43:58;17.70;;;8.00;;
78840;SDS011;68379;47.190;27.558;2024-01-06T06:46:29;13.40;;;7.30;;
78840;SDS011;68379;47.190;27.558;2024-01-06T06:49:01;18.60;;;7.90;;
78840;SDS011;68379;47.190;27.558;2024-01-06T06:51:33;14.40;;;7.30;;
78840;SDS011;68379;47.190;27.558;2024-01-06T06:54:06;16.40;;;7.60;;
78840;SDS011;68379;47.190;27.558;2024-01-06T06:56:38;15.40;;;7.50;;
78840;SDS011;68379;47.190;27.558;2024-01-06T06:59:09;14.70;;;7.50;;
78840;SDS011;68379;47.190;27.558;2024-01-06T07:01:41;15.10;;;7.80;;
78840;SDS011;68379;47.190;27.558;2024-01-06T07:04:12;14.90;;;7.70;;
78840;SDS011;68379;47.190;27.558;2024-01-06T07:06:44;16.80;;;7.80;;
78840;SDS011;68379;47.190;27.558;2024-01-06T07:09:15;15.10;;;7.10;;
78840;SDS011;68379;47.190;27.558;2024-01-06T07:11:47;13.50;;;6.60;;
78840;SDS011;68379;47.190;27.558;2024-01-06T07:14:18;13.80;;;7.10;;
78840;SDS011;68379;47.190;27.558;2024-01-06T07:16:50;13.00;;;6.30;;
78840;SDS011;68379;47.190;27.558;2024-01-06T07:19:21;13.10;;;7.50;;
78840;SDS011;68379;47.190;27.558;2024-01-06T07:21:53;15.80;;;7.50;;
78840;SDS011;68379;47.190;27.558;2024-01-06T07:24:24;14.10;;;7.30;;
78840;SDS011;68379;47.190;27.558;2024-01-06T07:26:56;11.50;;;7.00;;
78840;SDS011;68379;47.190;27.558;2024-01-06T07:29:27;14.40;;;6.90;;
78840;SDS011;68379;47.190;27.558;2024-01-06T07:31:59;10.70;;;6.60;;
78840;SDS011;68379;47.190;27.558;2024-01-06T07:34:30;13.20;;;7.30;;
78840;SDS011;68379;47.190;27.558;2024-01-06T07:37:02;13.50;;;6.70;;
78840;SDS011;68379;47.190;27.558;2024-01-06T07:39:34;14.00;;;7.00;;
78840;SDS011;68379;47.190;27.558;2024-01-06T07:42:05;12.30;;;6.60;;
78840;SDS011;68379;47.190;27.558;2024-01-06T07:44:37;14.50;;;8.10;;
78840;SDS011;68379;47.190;27.558;2024-01-06T07:47:08;12.60;;;7.20;;
78840;SDS011;68379;47.190;27.558;2024-01-06T07:49:40;12.80;;;7.70;;
78840;SDS011;68379;47.190;27.558;2024-01-06T07:52:11;13.30;;;7.20;;
78840;SDS011;68379;47.190;27.558;2024-01-06T07:54:43;10.80;;;6.20;;
78840;SDS011;68379;47.190;27.558;2024-01-06T07:57:14;13.80;;;7.10;;
78840;SDS011;68379;47.190;27.558;2024-01-06T07:59:46;13.30;;;6.70;;
78840;SDS011;68379;47.190;27.558;2024-01-06T08:02:17;13.00;;;7.40;;
78840;SDS011;68379;47.190;27.558;2024-01-06T08:04:49;14.90;;;7.20;;
78840;SDS011;68379;47.190;27.558;2024-01-06T08:07:22;13.50;;;7.10;;
78840;SDS011;68379;47.190;27.558;2024-01-06T08:09:55;13.30;;;6.60;;
78840;SDS011;68379;47.190;27.558;2024-01-06T08:12:27;16.50;;;7.50;;
78840;SDS011;68379;47.190;27.558;2024-01-06T08:14:59;15.10;;;7.50;;
78840;SDS011;68379;47.190;27.558;2024-01-06T08:17:31;13.40;;;6.80;;
78840;SDS011;68379;47.190;27.558;2024-01-06T08:20:04;12.80;;;7.00;;
78840;SDS011;68379;47.190;27.558;2024-01-06T08:22:36;11.60;;;6.50;;
78840;SDS011;68379;47.190;27.558;2024-01-06T08:25:07;13.00;;;6.80;;
78840;SDS011;68379;47.190;27.558;2024-01-06T08:27:39;13.10;;;7.10;;
78840;SDS011;68379;47.190;27.558;2024-01-06T08:30:11;12.20;;;6.90;;
78840;SDS011;68379;47.190;27.558;2024-01-06T08:32:43;14.00;;;7.40;;
78840;SDS011;68379;47.190;27.558;2024-01-06T08:35:14;16.40;;;8.30;;
78840;SDS011;68379;47.190;27.558;2024-01-06T08:37:45;15.20;;;7.40;;
78840;SDS011;68379;47.190;27.558;2024-01-06T08:40:17;16.80;;;7.40;;
78840;SDS011;68379;47.190;27.558;2024-01-06T08:42:49;17.50;;;8.40;;
78840;SDS011;68379;47.190;27.558;2024-01-06T08:45:20;14.00;;;7.00;;
78840;SDS011;68379;47.190;27.558;2024-01-06T08:47:51;16.90;;;8.50;;
78840;SDS011;68379;47.190;27.558;2024-01-06T08:50:23;13.70;;;7.80;;
78840;SDS011;68379;47.190;27.558;2024-01-06T08:52:54;15.00;;;8.00;;
78840;SDS011;68379;47.190;27.558;2024-01-06T08:55:26;15.50;;;7.80;;
78840;SDS011;68379;47.190;27.558;2024-01-06T08:57:57;15.20;;;8.10;;
78840;SDS011;68379;47.190;27.558;2024-01-06T09:00:29;14.50;;;8.40;;
78840;SDS011;68379;47.190;27.558;2024-01-06T09:03:00;14.50;;;7.60;;
78840;SDS011;68379;47.190;27.558;2024-01-06T09:05:32;13.60;;;7.10;;
78840;SDS011;68379;47.190;27.558;2024-01-06T09:08:05;14.20;;;7.60;;
78840;SDS011;68379;47.190;27.558;2024-01-06T09:10:37;10.60;;;7.00;;
78840;SDS011;68379;47.190;27.558;2024-01-06T09:13:08;10.70;;;7.30;;
78840;SDS011;68379;47.190;27.558;2024-01-06T09:15:39;13.00;;;7.20;;
78840;SDS011;68379;47.190;27.558;2024-01-06T09:18:11;13.00;;;6.80;;
78840;SDS011;68379;47.190;27.558;2024-01-06T09:20:42;12.90;;;7.00;;
78840;SDS011;68379;47.190;27.558;2024-01-06T09:23:15;14.30;;;7.20;;
78840;SDS011;68379;47.190;27.558;2024-01-06T09:25:47;14.80;;;7.10;;
78840;SDS011;68379;47.190;27.558;2024-01-06T09:28:19;13.80;;;6.90;;
78840;SDS011;68379;47.190;27.558;2024-01-06T09:30:51;16.60;;;7.30;;
78840;SDS011;68379;47.190;27.558;2024-01-06T09:33:24;10.70;;;6.30;;
78840;SDS011;68379;47.190;27.558;2024-01-06T09:35:55;13.50;;;7.70;;
78840;SDS011;68379;47.190;27.558;2024-01-06T09:38:27;16.10;;;7.20;;
78840;SDS011;68379;47.190;27.558;2024-01-06T09:40:58;14.30;;;7.00;;
78840;SDS011;68379;47.190;27.558;2024-01-06T09:43:30;14.10;;;7.40;;
78840;SDS011;68379;47.190;27.558;2024-01-06T09:46:05;14.10;;;7.10;;
78840;SDS011;68379;47.190;27.558;2024-01-06T09:48:44;13.80;;;7.70;;
78840;SDS011;68379;47.190;27.558;2024-01-06T09:51:17;13.00;;;7.00;;
78840;SDS011;68379;47.190;27.558;2024-01-06T09:53:52;16.40;;;6.90;;
78840;SDS011;68379;47.190;27.558;2024-01-06T09:56:28;10.90;;;6.70;;
78840;SDS011;68379;47.190;27.558;2024-01-06T09:59:00;11.80;;;6.90;;
78840;SDS011;68379;47.190;27.558;2024-01-06T10:01:32;13.80;;;7.00;;
78840;SDS011;68379;47.190;27.558;2024-01-06T10:04:04;14.40;;;7.40;;
78840;SDS011;68379;47.190;27.558;2024-01-06T10:06:35;11.60;;;6.90;;
78840;SDS011;68379;47.190;27.558;2024-01-06T10:09:07;14.20;;;7.60;;
78840;SDS011;68379;47.190;27.558;2024-01-06T10:11:39;12.90;;;6.90;;
78840;SDS011;68379;47.190;27.558;2024-01-06T10:14:11;12.20;;;7.10;;
78840;SDS011;68379;47.190;27.558;2024-01-06T10:16:42;12.60;;;7.10;;
78840;SDS011;68379;47.190;27.558;2024-01-06T10:19:17;11.50;;;7.10;;
78840;SDS011;68379;47.190;27.558;2024-01-06T10:21:48;13.20;;;7.20;;
78840;SDS011;68379;47.190;27.558;2024-01-06T10:24:20;11.70;;;6.50;;
78840;SDS011;68379;47.190;27.558;2024-01-06T10:26:51;12.50;;;6.70;;
78840;SDS011;68379;47.190;27.558;2024-01-06T10:29:22;13.30;;;6.50;;
78840;SDS011;68379;47.190;27.558;2024-01-06T10:31:55;10.40;;;5.80;;
78840;SDS011;68379;47.190;27.558;2024-01-06T10:34:27;12.60;;;6.30;;
78840;SDS011;68379;47.190;27.558;2024-01-06T10:37:00;11.20;;;6.30;;
78840;SDS011;68379;47.190;27.558;2024-01-06T10:39:33;12.10;;;7.00;;
78840;SDS011;68379;47.190;27.558;2024-01-06T10:42:05;16.30;;;7.60;;
78840;SDS011;68379;47.190;27.558;2024-01-06T10:44:40;10.80;;;6.10;;
78840;SDS011;68379;47.190;27.558;2024-01-06T10:47:13;12.80;;;7.30;;
78840;SDS011;68379;47.190;27.558;2024-01-06T10:49:48;11.70;;;7.00;;
78840;SDS011;68379;47.190;27.558;2024-01-06T10:52:22;12.00;;;6.60;;
78840;SDS011;68379;47.190;27.558;2024-01-06T10:54:55;11.90;;;6.40;;
78840;SDS011;68379;47.190;27.558;2024-01-06T10:57:27;11.00;;;6.50;;
78840;SDS011;68379;47.190;27.558;2024-01-06T11:00:00;14.20;;;7.10;;
78840;SDS011;68379;47.190;27.558;2024-01-06T11:02:33;13.80;;;8.00;;
78840;SDS011;68379;47.190;27.558;2024-01-06T11:05:06;15.80;;;7.10;;
78840;SDS011;68379;47.190;27.558;2024-01-06T11:07:38;11.40;;;7.10;;
78840;SDS011;68379;47.190;27.558;2024-01-06T11:10:12;12.40;;;6.90;;
78840;SDS011;68379;47.190;27.558;2024-01-06T11:12:46;15.90;;;7.10;;
78840;SDS011;68379;47.190;27.558;2024-01-06T11:15:41;12.20;;;7.00;;
78840;SDS011;68379;47.190;27.558;2024-01-06T11:18:33;12.00;;;7.00;;
78840;SDS011;68379;47.190;27.558;2024-01-06T11:24:11;12.50;;;7.50;;
78840;SDS011;68379;47.190;27.558;2024-01-06T11:26:51;11.20;;;6.80;;
78840;SDS011;68379;47.190;27.558;2024-01-06T11:29:26;11.80;;;6.20;;
78840;SDS011;68379;47.190;27.558;2024-01-06T11:32:18;11.20;;;6.40;;
78840;SDS011;68379;47.190;27.558;2024-01-06T11:34:54;11.40;;;7.00;;
78840;SDS011;68379;47.190;27.558;2024-01-06T11:37:37;13.00;;;7.10;;
78840;SDS011;68379;47.190;27.558;2024-01-06T11:40:31;17.40;;;7.60;;
78840;SDS011;68379;47.190;27.558;2024-01-06T11:43:05;14.30;;;6.90;;
78840;SDS011;68379;47.190;27.558;2024-01-06T11:48:11;10.90;;;6.70;;
78840;SDS011;68379;47.190;27.558;2024-01-06T11:50:42;14.20;;;6.90;;
78840;SDS011;68379;47.190;27.558;2024-01-06T11:53:14;11.10;;;6.80;;
78840;SDS011;68379;47.190;27.558;2024-01-06T11:55:46;10.90;;;5.90;;
78840;SDS011;68379;47.190;27.558;2024-01-06T11:58:19;14.60;;;7.70;;
78840;SDS011;68379;47.190;27.558;2024-01-06T12:00:58;15.00;;;7.70;;
78840;SDS011;68379;47.190;27.558;2024-01-06T12:03:29;10.70;;;6.60;;
78840;SDS011;68379;47.190;27.558;2024-01-06T12:06:01;11.20;;;7.60;;
78840;SDS011;68379;47.190;27.558;2024-01-06T12:08:34;14.40;;;7.70;;
78840;SDS011;68379;47.190;27.558;2024-01-06T12:11:05;9.70;;;6.30;;
78840;SDS011;68379;47.190;27.558;2024-01-06T12:13:37;10.80;;;6.60;;
78840;SDS011;68379;47.190;27.558;2024-01-06T12:16:08;13.10;;;7.30;;
78840;SDS011;68379;47.190;27.558;2024-01-06T12:18:39;11.30;;;6.60;;
78840;SDS011;68379;47.190;27.558;2024-01-06T12:21:11;12.00;;;6.80;;
78840;SDS011;68379;47.190;27.558;2024-01-06T12:23:42;14.10;;;6.90;;
78840;SDS011;68379;47.190;27.558;2024-01-06T12:26:14;13.50;;;7.50;;
78840;SDS011;68379;47.190;27.558;2024-01-06T12:28:48;14.40;;;7.10;;
78840;SDS011;68379;47.190;27.558;2024-01-06T12:31:20;12.70;;;7.10;;
78840;SDS011;68379;47.190;27.558;2024-01-06T12:33:51;12.60;;;7.20;;
78840;SDS011;68379;47.190;27.558;2024-01-06T12:36:23;11.40;;;6.30;;
78840;SDS011;68379;47.190;27.558;2024-01-06T12:38:55;10.80;;;6.40;;
78840;SDS011;68379;47.190;27.558;2024-01-06T12:41:26;12.80;;;6.20;;
78840;SDS011;68379;47.190;27.558;2024-01-06T12:44:01;12.50;;;6.20;;
78840;SDS011;68379;47.190;27.558;2024-01-06T12:46:32;10.00;;;6.40;;
78840;SDS011;68379;47.190;27.558;2024-01-06T12:49:04;12.10;;;6.40;;
78840;SDS011;68379;47.190;27.558;2024-01-06T12:51:35;12.90;;;6.00;;
78840;SDS011;68379;47.190;27.558;2024-01-06T12:54:06;11.10;;;6.50;;
78840;SDS011;68379;47.190;27.558;2024-01-06T12:56:37;11.10;;;6.80;;
78840;SDS011;68379;47.190;27.558;2024-01-06T12:59:09;13.00;;;6.80;;
78840;SDS011;68379;47.190;27.558;2024-01-06T13:01:41;12.80;;;6.60;;
78840;SDS011;68379;47.190;27.558;2024-01-06T13:04:13;11.80;;;6.80;;
78840;SDS011;68379;47.190;27.558;2024-01-06T13:06:44;13.30;;;6.50;;
78840;SDS011;68379;47.190;27.558;2024-01-06T13:09:17;11.40;;;6.20;;
78840;SDS011;68379;47.190;27.558;2024-01-06T13:11:51;10.60;;;6.30;;
78840;SDS011;68379;47.190;27.558;2024-01-06T13:14:24;12.10;;;6.00;;
78840;SDS011;68379;47.190;27.558;2024-01-06T13:16:55;13.50;;;6.30;;
78840;SDS011;68379;47.190;27.558;2024-01-06T13:19:26;10.40;;;5.60;;
78840;SDS011;68379;47.190;27.558;2024-01-06T13:21:58;12.30;;;6.60;;
78840;SDS011;68379;47.190;27.558;2024-01-06T13:24:29;11.60;;;6.00;;
78840;SDS011;68379;47.190;27.558;2024-01-06T13:27:00;10.80;;;5.80;;
78840;SDS011;68379;47.190;27.558;2024-01-06T13:29:32;9.10;;;5.50;;
78840;SDS011;68379;47.190;27.558;2024-01-06T13:32:04;12.30;;;5.80;;
78840;SDS011;68379;47.190;27.558;2024-01-06T13:34:38;11.10;;;5.90;;
78840;SDS011;68379;47.190;27.558;2024-01-06T13:37:09;10.10;;;6.00;;
78840;SDS011;68379;47.190;27.558;2024-01-06T13:39:41;11.90;;;6.00;;
78840;SDS011;68379;47.190;27.558;2024-01-06T13:42:12;9.70;;;5.20;;
78840;SDS011;68379;47.190;27.558;2024-01-06T13:44:43;10.00;;;5.70;;
78840;SDS011;68379;47.190;27.558;2024-01-06T13:47:16;12.10;;;6.10;;
78840;SDS011;68379;47.190;27.558;2024-01-06T13:49:47;12.40;;;6.70;;
78840;SDS011;68379;47.190;27.558;2024-01-06T13:52:19;8.70;;;5.70;;
78840;SDS011;68379;47.190;27.558;2024-01-06T13:54:50;15.90;;;6.40;;
78840;SDS011;68379;47.190;27.558;2024-01-06T13:57:24;10.90;;;5.70;;
78840;SDS011;68379;47.190;27.558;2024-01-06T13:59:56;13.50;;;5.40;;
78840;SDS011;68379;47.190;27.558;2024-01-06T14:02:27;9.30;;;6.40;;
78840;SDS011;68379;47.190;27.558;2024-01-06T14:04:58;10.70;;;6.80;;
78840;SDS011;68379;47.190;27.558;2024-01-06T14:07:30;10.70;;;6.20;;
78840;SDS011;68379;47.190;27.558;2024-01-06T14:10:02;10.40;;;6.20;;
78840;SDS011;68379;47.190;27.558;2024-01-06T14:12:33;11.50;;;7.00;;
78840;SDS011;68379;47.190;27.558;2024-01-06T14:15:06;12.10;;;6.90;;
78840;SDS011;68379;47.190;27.558;2024-01-06T14:17:39;11.80;;;6.50;;
78840;SDS011;68379;47.190;27.558;2024-01-06T14:20:11;13.30;;;7.30;;
78840;SDS011;68379;47.190;27.558;2024-01-06T14:22:45;11.80;;;6.80;;
78840;SDS011;68379;47.190;27.558;2024-01-06T14:25:18;14.00;;;7.60;;
78840;SDS011;68379;47.190;27.558;2024-01-06T14:27:49;13.00;;;7.00;;
78840;SDS011;68379;47.190;27.558;2024-01-06T14:30:21;11.90;;;6.80;;
78840;SDS011;68379;47.190;27.558;2024-01-06T14:35:24;13.70;;;6.50;;
78840;SDS011;68379;47.190;27.558;2024-01-06T14:37:56;11.50;;;5.80;;
78840;SDS011;68379;47.190;27.558;2024-01-06T14:40:27;12.20;;;7.30;;
78840;SDS011;68379;47.190;27.558;2024-01-06T14:42:59;13.80;;;7.50;;
78840;SDS011;68379;47.190;27.558;2024-01-06T14:45:32;17.50;;;7.20;;
78840;SDS011;68379;47.190;27.558;2024-01-06T14:48:05;16.40;;;7.00;;
78840;SDS011;68379;47.190;27.558;2024-01-06T14:50:37;15.80;;;8.20;;
78840;SDS011;68379;47.190;27.558;2024-01-06T14:53:08;15.80;;;7.60;;
78840;SDS011;68379;47.190;27.558;2024-01-06T14:55:39;14.40;;;7.40;;
78840;SDS011;68379;47.190;27.558;2024-01-06T14:58:11;18.10;;;8.30;;
78840;SDS011;68379;47.190;27.558;2024-01-06T15:00:42;17.10;;;9.30;;
78840;SDS011;68379;47.190;27.558;2024-01-06T15:03:13;14.70;;;7.60;;